Artesian, Iowa
Current Conditions -  °F | °C
As of 11:54 AM on Thursday 23 Oct 2014 (Local Time) from KALO Reporting Station
Haze Haze  
Wind Chill: 50°   Ceiling: 600
Heat Index: 50°   Visibility: 3mi
Dew Point: 48°   Wind: 5mph
Humidity: 93%   Direction: 170°S
Pressure: 30.05"   Gusts: NA
Location:  42.787°N, 92.4284°W
Report Text: KALO 231654Z 17004KT 3SM BR OVC006 10/09 A3005 RMK AO2 SLP178 T01000089
Loading
Personal Weather Stations






























Interactive Weather Map
Tropical Storm Tracking
New forecast layout! Learn more

10-Day Weather Forecast

Advertisements
Track Severe Weather on mobile